Time;durP1;ratioP1;P1;durP2;ratioP2;P2;SDS_P1;SDS_P2;PMS_P1;PMS_P2;Temp;Humidity;BMP_temperature;BMP_pressure;BME280_temperature;BME280_humidity;BME280_pressure;Samples;Min_cycle;Max_cycle;Signal;HPM_P1;HPM_P2
2022/09/19 00:01:11;;;;;;;20.13;15.73;;;20.30;46.00;;;;;;4990974;28;20488;-76
2022/09/19 00:03:39;;;;;;;20.40;15.90;;;20.30;46.10;;;;;;5004553;28;20444;-77
2022/09/19 00:06:07;;;;;;;22.63;16.40;;;20.30;46.20;;;;;;5003558;28;20477;-77
2022/09/19 00:08:36;;;;;;;22.80;16.73;;;20.40;46.30;;;;;;4993048;28;20452;-77
2022/09/19 00:11:05;;;;;;;21.90;16.27;;;20.40;46.40;;;;;;4992785;28;20453;-76
2022/09/19 00:13:34;;;;;;;21.73;15.53;;;20.40;46.30;;;;;;4992383;28;20461;-78
2022/09/19 00:16:02;;;;;;;20.23;15.30;;;20.40;46.20;;;;;;4992410;28;20415;-77
2022/09/19 00:18:31;;;;;;;19.43;14.77;;;20.40;46.30;;;;;;4997465;28;20903;-77
2022/09/19 00:21:00;;;;;;;22.67;16.40;;;20.30;46.30;;;;;;5003611;28;20468;-77
2022/09/19 00:26:17;;;;;;;21.97;15.20;;;20.30;46.60;;;;;;4998746;28;20520;-76
2022/09/19 00:28:46;;;;;;;23.70;14.90;;;20.30;46.40;;;;;;5000368;28;20469;-78
2022/09/19 00:31:17;;;;;;;16.50;13.50;;;20.30;46.60;;;;;;4998575;28;20444;-77
2022/09/19 00:33:46;;;;;;;18.40;13.93;;;20.30;46.80;;;;;;5011518;28;20448;-77
2022/09/19 00:36:13;;;;;;;17.90;14.03;;;20.30;47.00;;;;;;5005937;28;20437;-76
2022/09/19 00:38:42;;;;;;;17.13;13.13;;;20.30;47.10;;;;;;5011731;28;20499;-76
2022/09/19 00:41:11;;;;;;;17.80;13.30;;;20.30;47.10;;;;;;5012000;28;20482;-76
2022/09/19 00:43:47;;;;;;;17.23;12.97;;;20.30;47.10;;;;;;5011760;28;20495;-77
2022/09/19 00:46:15;;;;;;;17.80;13.10;;;20.30;47.10;;;;;;4997491;28;20472;-77
2022/09/19 00:48:45;;;;;;;17.87;13.57;;;20.30;47.10;;;;;;4994281;28;20445;-77
2022/09/19 00:51:14;;;;;;;16.47;12.83;;;20.40;47.10;;;;;;5000902;28;20467;-76
2022/09/19 00:53:42;;;;;;;15.10;12.30;;;20.40;47.00;;;;;;4995598;28;20453;-76
2022/09/19 00:56:10;;;;;;;17.37;12.70;;;20.30;46.80;;;;;;4991700;28;20442;-76
2022/09/19 00:58:41;;;;;;;16.90;12.43;;;20.40;47.20;;;;;;4991003;28;20527;-76
2022/09/19 01:01:11;;;;;;;17.07;12.37;;;20.40;47.00;;;;;;4988549;28;20445;-76
2022/09/19 01:03:39;;;;;;;17.13;11.77;;;20.30;47.00;;;;;;4995971;28;20457;-77
2022/09/19 01:06:18;;;;;;;15.60;11.50;;;20.40;47.20;;;;;;4995933;28;20487;-78
2022/09/19 01:08:52;;;;;;;18.27;13.13;;;20.40;47.20;;;;;;4995233;28;20461;-77
2022/09/19 01:11:32;;;;;;;15.53;11.87;;;20.30;47.00;;;;;;5005917;28;20444;-77
2022/09/19 01:14:05;;;;;;;15.50;11.60;;;20.30;47.10;;;;;;4994427;28;20483;-77
2022/09/19 01:16:38;;;;;;;14.97;11.70;;;20.30;47.20;;;;;;4998161;28;20421;-77
2022/09/19 01:19:13;;;;;;;14.83;11.40;;;20.30;47.30;;;;;;4995376;28;20496;-76
2022/09/19 01:21:45;;;;;;;15.30;11.27;;;20.30;47.00;;;;;;4995899;28;20441;-76
2022/09/19 01:24:44;;;;;;;14.70;11.37;;;20.30;47.10;;;;;;4998934;28;20467;-75
2022/09/19 01:27:24;;;;;;;15.67;11.60;;;20.30;47.20;;;;;;5000194;28;20473;-76
2022/09/19 01:29:55;;;;;;;15.30;11.10;;;20.30;47.30;;;;;;4994964;28;20472;-75
2022/09/19 01:32:25;;;;;;;12.70;9.87;;;20.30;47.20;;;;;;4995317;28;20452;-75
2022/09/19 01:34:54;;;;;;;16.87;11.70;;;20.30;47.20;;;;;;4994761;28;20464;-75
2022/09/19 01:37:27;;;;;;;13.03;10.00;;;20.20;47.30;;;;;;4997366;28;20445;-76
2022/09/19 01:39:56;;;;;;;14.20;10.30;;;20.20;47.40;;;;;;4987673;28;20473;-77
2022/09/19 01:42:23;;;;;;;14.53;10.87;;;20.20;47.80;;;;;;5000994;28;20443;-75
2022/09/19 01:44:52;;;;;;;15.13;11.10;;;20.20;47.40;;;;;;4995338;28;20472;-76
2022/09/19 01:47:24;;;;;;;12.83;10.10;;;20.20;47.60;;;;;;4995095;28;21010;-76
2022/09/19 01:49:55;;;;;;;12.60;9.90;;;20.20;47.60;;;;;;4994966;28;20535;-76
2022/09/19 01:52:31;;;;;;;13.33;10.40;;;20.20;47.60;;;;;;4995174;28;20437;-77
2022/09/19 01:55:00;;;;;;;11.50;9.20;;;20.20;47.60;;;;;;4992600;28;20453;-76
2022/09/19 01:57:32;;;;;;;11.33;9.17;;;20.20;47.50;;;;;;5003037;28;20425;-76
2022/09/19 02:00:06;;;;;;;13.07;9.87;;;20.10;47.60;;;;;;5012967;28;20466;-75
2022/09/19 02:02:39;;;;;;;9.60;8.30;;;20.10;47.60;;;;;;5014862;28;20440;-76
2022/09/19 02:05:10;;;;;;;12.60;9.30;;;20.00;47.80;;;;;;5014499;28;20468;-76
2022/09/19 02:07:43;;;;;;;11.57;9.13;;;20.00;47.80;;;;;;5014636;28;20546;-76
2022/09/19 02:10:16;;;;;;;13.20;9.70;;;20.00;47.80;;;;;;5013560;28;20514;-76
2022/09/19 02:12:44;;;;;;;11.07;9.00;;;20.00;47.80;;;;;;5004193;28;20457;-77
2022/09/19 02:15:12;;;;;;;12.97;9.37;;;20.00;47.90;;;;;;5003065;28;20468;-77
2022/09/19 02:17:44;;;;;;;10.63;8.63;;;19.90;47.90;;;;;;4994490;28;20433;-78
2022/09/19 02:20:14;;;;;;;10.53;8.23;;;19.90;47.90;;;;;;4994517;28;20467;-77
2022/09/19 02:22:47;;;;;;;9.37;8.10;;;19.90;48.10;;;;;;4994574;28;20437;-78
2022/09/19 02:25:16;;;;;;;10.23;8.13;;;19.90;48.10;;;;;;4994524;28;21013;-76
2022/09/19 02:27:50;;;;;;;12.17;8.33;;;19.90;47.90;;;;;;4993264;28;20476;-76
2022/09/19 02:30:19;;;;;;;9.57;7.83;;;19.90;47.90;;;;;;5001180;28;20468;-76
2022/09/19 02:32:48;;;;;;;9.93;8.23;;;19.90;47.90;;;;;;5002675;28;20511;-76
2022/09/19 02:35:17;;;;;;;10.40;7.60;;;19.90;47.90;;;;;;5009005;28;20451;-77
2022/09/19 02:37:47;;;;;;;12.00;8.17;;;19.90;48.00;;;;;;5014086;28;20451;-77
2022/09/19 02:40:20;;;;;;;8.10;7.30;;;19.90;47.90;;;;;;5013505;28;20472;-78
2022/09/19 02:42:50;;;;;;;10.20;8.00;;;19.80;47.90;;;;;;5011190;28;20559;-78
2022/09/19 02:45:20;;;;;;;8.80;7.50;;;19.80;48.00;;;;;;4996221;28;20473;-78
2022/09/19 02:47:51;;;;;;;11.60;8.40;;;19.80;48.00;;;;;;4993435;28;20528;-78
2022/09/19 02:50:23;;;;;;;10.60;8.23;;;19.80;48.10;;;;;;5000538;28;20469;-77
2022/09/19 02:52:50;;;;;;;8.00;7.10;;;19.80;48.20;;;;;;5013416;28;20491;-76
2022/09/19 02:55:23;;;;;;;9.47;7.47;;;19.80;48.00;;;;;;5006070;28;20457;-76
2022/09/19 02:57:53;;;;;;;11.83;7.93;;;19.80;48.00;;;;;;4995807;28;20433;-76
2022/09/19 03:00:21;;;;;;;9.40;7.03;;;19.70;48.00;;;;;;4993872;28;20540;-76
2022/09/19 03:02:56;;;;;;;8.67;7.33;;;19.70;48.10;;;;;;4992795;28;20491;-76
2022/09/19 03:05:25;;;;;;;9.73;7.80;;;19.70;48.20;;;;;;5001440;28;20452;-76
2022/09/19 03:07:55;;;;;;;7.63;6.80;;;19.70;48.30;;;;;;4993382;28;20476;-77
2022/09/19 03:10:24;;;;;;;6.87;6.13;;;19.70;48.30;;;;;;4993634;28;20512;-76
2022/09/19 03:12:53;;;;;;;8.70;7.10;;;19.70;48.30;;;;;;4993626;28;20441;-77
2022/09/19 03:15:22;;;;;;;8.70;6.90;;;19.70;48.30;;;;;;4993465;28;20438;-78
2022/09/19 03:17:52;;;;;;;9.70;6.37;;;19.70;48.20;;;;;;4993499;28;20940;-77
2022/09/19 03:20:22;;;;;;;9.27;6.20;;;19.70;48.20;;;;;;4993521;28;20473;-77
2022/09/19 03:22:50;;;;;;;8.50;7.00;;;19.60;48.30;;;;;;4992547;28;20524;-78
2022/09/19 03:25:18;;;;;;;6.63;5.93;;;19.60;48.10;;;;;;5002150;28;20446;-78
2022/09/19 03:27:46;;;;;;;7.27;6.40;;;19.60;48.30;;;;;;4993257;28;20473;-76
2022/09/19 03:30:14;;;;;;;7.50;6.43;;;19.60;48.50;;;;;;4993017;28;20473;-77
2022/09/19 03:32:46;;;;;;;7.23;6.50;;;19.60;48.30;;;;;;4993103;28;20492;-78
2022/09/19 03:35:16;;;;;;;7.03;6.33;;;19.50;48.20;;;;;;4993302;28;20450;-78
2022/09/19 03:37:44;;;;;;;7.63;6.23;;;19.50;48.30;;;;;;5000001;28;20453;-78
2022/09/19 03:40:12;;;;;;;7.53;5.63;;;19.50;48.20;;;;;;4999147;28;20508;-78
2022/09/19 03:42:40;;;;;;;6.40;5.47;;;19.50;48.30;;;;;;5012668;28;20452;-77
2022/09/19 03:45:09;;;;;;;6.37;5.67;;;19.40;48.40;;;;;;4998820;28;20524;-77
2022/09/19 03:47:37;;;;;;;8.73;6.30;;;19.40;48.40;;;;;;4992969;28;20481;-78
2022/09/19 03:50:06;;;;;;;7.43;5.90;;;19.40;48.40;;;;;;4993504;28;20563;-78
2022/09/19 03:52:35;;;;;;;6.73;5.63;;;19.40;48.30;;;;;;4993084;28;20454;-78
2022/09/19 03:55:02;;;;;;;9.20;5.87;;;19.40;48.30;;;;;;5000047;28;20526;-76
2022/09/19 03:57:30;;;;;;;7.17;5.50;;;19.40;48.40;;;;;;4992652;28;20469;-78
2022/09/19 03:59:58;;;;;;;8.70;5.97;;;19.40;48.50;;;;;;4992638;28;20477;-76
2022/09/19 04:02:26;;;;;;;5.57;5.00;;;19.40;48.30;;;;;;4992774;28;20441;-77
2022/09/19 04:04:55;;;;;;;7.37;5.43;;;19.40;49.10;;;;;;4992569;28;20453;-78
2022/09/19 04:07:22;;;;;;;6.43;5.43;;;19.40;48.30;;;;;;4992526;28;20469;-78
2022/09/19 04:09:54;;;;;;;6.93;6.20;;;19.30;48.30;;;;;;4990063;28;20536;-77
2022/09/19 04:12:21;;;;;;;9.27;6.10;;;19.30;48.60;;;;;;4993727;28;21016;-78
2022/09/19 04:14:50;;;;;;;6.63;5.30;;;19.30;48.50;;;;;;5003832;28;20515;-76
2022/09/19 04:17:17;;;;;;;5.87;5.03;;;19.20;48.40;;;;;;5012259;28;20440;-78
2022/09/19 04:19:50;;;;;;;6.23;5.00;;;19.20;48.50;;;;;;4997733;28;20473;-78
2022/09/19 04:22:19;;;;;;;5.60;4.87;;;19.30;48.60;;;;;;4994703;28;20932;-78
2022/09/19 04:24:48;;;;;;;5.33;4.80;;;19.30;48.60;;;;;;4991848;28;20461;-78
2022/09/19 04:27:17;;;;;;;7.80;4.80;;;19.20;48.50;;;;;;4999172;28;20508;-78
2022/09/19 04:29:48;;;;;;;6.50;4.80;;;19.20;48.50;;;;;;5011357;28;20486;-77
2022/09/19 04:32:16;;;;;;;5.30;4.80;;;19.20;48.40;;;;;;5011418;28;20935;-78
2022/09/19 04:34:44;;;;;;;5.43;4.83;;;19.20;48.40;;;;;;4994626;28;20504;-77
2022/09/19 04:37:15;;;;;;;6.70;4.87;;;19.10;48.50;;;;;;5012196;28;20441;-77
2022/09/19 04:39:42;;;;;;;4.73;4.33;;;19.10;48.80;;;;;;5004884;28;20480;-78
2022/09/19 04:42:11;;;;;;;5.83;4.60;;;19.10;48.70;;;;;;4987376;28;20453;-76
2022/09/19 04:44:40;;;;;;;4.73;4.30;;;19.10;48.80;;;;;;5003487;28;20468;-78
2022/09/19 04:47:08;;;;;;;5.13;4.63;;;19.10;48.80;;;;;;5002066;28;20516;-78
2022/09/19 04:49:38;;;;;;;5.00;4.33;;;19.10;48.70;;;;;;4993472;28;20524;-78
2022/09/19 04:52:06;;;;;;;5.33;4.50;;;19.10;48.70;;;;;;4992302;28;20457;-78
2022/09/19 04:54:37;;;;;;;4.50;4.10;;;19.10;48.70;;;;;;4991972;28;20446;-78
2022/09/19 04:57:06;;;;;;;5.40;4.90;;;19.10;48.60;;;;;;4993950;28;20468;-77
2022/09/19 04:59:34;;;;;;;6.13;4.53;;;19.10;48.60;;;;;;4997048;28;20472;-79
2022/09/19 05:02:05;;;;;;;5.97;4.43;;;19.10;48.60;;;;;;5011576;28;20448;-77
2022/09/19 05:04:34;;;;;;;5.17;4.37;;;19.10;48.50;;;;;;5011538;28;20452;-78
2022/09/19 05:07:02;;;;;;;6.27;4.60;;;19.10;48.70;;;;;;5011022;28;20452;-78
2022/09/19 05:09:30;;;;;;;4.53;3.93;;;19.10;48.80;;;;;;4997666;28;20485;-78
2022/09/19 05:11:58;;;;;;;5.00;4.20;;;19.10;48.60;;;;;;4993649;28;20434;-78
2022/09/19 05:14:26;;;;;;;5.00;4.27;;;19.00;48.60;;;;;;4991723;28;20904;-78
2022/09/19 05:16:55;;;;;;;7.30;4.70;;;18.90;48.80;;;;;;4998381;28;20449;-77
2022/09/19 05:19:24;;;;;;;4.70;3.77;;;18.90;48.80;;;;;;4987677;28;20761;-74
2022/09/19 05:21:52;;;;;;;5.37;4.40;;;18.90;48.80;;;;;;4991729;28;20437;-77
2022/09/19 05:24:20;;;;;;;4.93;4.47;;;19.00;48.80;;;;;;4991808;28;20445;-77
2022/09/19 05:26:48;;;;;;;4.47;3.80;;;19.00;48.70;;;;;;4992034;28;20457;-77
2022/09/19 05:29:17;;;;;;;4.80;4.33;;;18.90;48.80;;;;;;4990411;28;20485;-78
2022/09/19 05:31:45;;;;;;;6.10;4.40;;;18.90;48.80;;;;;;4999741;28;20437;-78
2022/09/19 05:34:13;;;;;;;6.13;4.20;;;19.00;48.70;;;;;;4989216;28;20511;-78
2022/09/19 05:36:47;;;;;;;6.40;4.20;;;19.00;48.60;;;;;;4993797;28;20456;-76
2022/09/19 05:39:15;;;;;;;5.10;4.60;;;19.00;48.70;;;;;;4990795;28;20468;-78
2022/09/19 05:41:43;;;;;;;6.40;4.27;;;19.00;48.60;;;;;;4993551;28;20442;-77
2022/09/19 05:44:13;;;;;;;5.73;3.80;;;19.00;48.70;;;;;;4992179;28;20468;-77
2022/09/19 05:46:42;;;;;;;4.87;4.30;;;19.10;48.80;;;;;;4997597;28;20456;-77
2022/09/19 05:49:10;;;;;;;4.70;4.03;;;19.10;48.70;;;;;;5002177;28;20511;-77
2022/09/19 05:51:38;;;;;;;7.30;4.43;;;19.10;48.70;;;;;;5010368;28;20444;-77
2022/09/19 05:54:06;;;;;;;5.40;4.60;;;19.10;48.80;;;;;;5014650;28;20436;-78
2022/09/19 05:56:34;;;;;;;6.43;4.83;;;19.10;48.80;;;;;;5014586;28;20471;-77
2022/09/19 05:59:02;;;;;;;4.60;4.20;;;19.10;48.80;;;;;;5014438;28;20464;-77
2022/09/19 06:01:30;;;;;;;6.40;4.40;;;19.10;48.70;;;;;;5013334;28;20559;-77
2022/09/19 06:03:59;;;;;;;5.77;4.27;;;19.10;48.70;;;;;;4994566;28;20499;-77
2022/09/19 06:06:27;;;;;;;4.90;4.40;;;19.10;48.80;;;;;;5001730;28;20449;-78
2022/09/19 06:08:57;;;;;;;5.13;4.20;;;19.10;48.70;;;;;;4999052;28;20480;-77
2022/09/19 06:11:27;;;;;;;5.30;4.47;;;19.10;48.70;;;;;;4996799;28;20445;-78
2022/09/19 06:16:41;;;;;;;5.33;4.50;;;19.10;48.70;;;;;;4996923;28;20449;-75
2022/09/19 06:19:09;;;;;;;5.13;4.20;;;19.10;48.70;;;;;;4994410;28;20548;-76
2022/09/19 06:21:37;;;;;;;4.40;4.00;;;19.10;48.80;;;;;;4993610;28;20465;-76
2022/09/19 06:24:07;;;;;;;5.50;4.50;;;19.10;48.60;;;;;;4999305;28;20461;-77
2022/09/19 06:26:36;;;;;;;7.23;4.90;;;19.00;48.70;;;;;;5003558;28;20452;-76
2022/09/19 06:29:06;;;;;;;6.00;4.50;;;19.10;48.80;;;;;;5013766;28;20491;-78
2022/09/19 06:31:35;;;;;;;6.30;4.60;;;19.10;48.60;;;;;;5013859;28;20452;-78
2022/09/19 06:34:04;;;;;;;7.00;5.10;;;19.10;48.70;;;;;;4996622;28;20515;-77
2022/09/19 06:36:31;;;;;;;7.07;5.30;;;19.20;48.70;;;;;;4994782;28;20457;-78
2022/09/19 06:39:00;;;;;;;6.50;5.60;;;19.20;48.80;;;;;;5001892;28;20461;-78
2022/09/19 06:41:30;;;;;;;6.80;5.27;;;19.20;48.50;;;;;;4994068;28;20453;-77
2022/09/19 06:44:01;;;;;;;7.47;5.90;;;19.20;48.60;;;;;;4994127;28;20484;-77
2022/09/19 06:46:30;;;;;;;11.23;6.70;;;19.10;48.40;;;;;;4993164;28;20453;-77
2022/09/19 06:48:59;;;;;;;6.73;5.83;;;19.20;48.80;;;;;;4993292;28;20533;-78
2022/09/19 06:51:27;;;;;;;8.40;6.53;;;19.10;48.50;;;;;;4994002;28;20460;-75
2022/09/19 06:53:55;;;;;;;8.70;6.50;;;19.20;48.70;;;;;;4993398;28;20463;-76
2022/09/19 06:56:24;;;;;;;9.30;7.20;;;19.30;48.60;;;;;;4988078;28;20457;-77
2022/09/19 06:58:52;;;;;;;9.10;7.70;;;19.30;48.60;;;;;;4995087;28;20465;-78
2022/09/19 07:01:22;;;;;;;9.60;7.77;;;19.30;48.80;;;;;;4992212;28;20453;-78
2022/09/19 07:03:51;;;;;;;10.20;7.57;;;19.40;48.40;;;;;;4995203;28;20456;-77
2022/09/19 07:06:19;;;;;;;9.77;7.60;;;19.40;48.40;;;;;;4992389;28;20468;-78
2022/09/19 07:08:47;;;;;;;10.30;7.67;;;19.40;48.70;;;;;;5003557;28;20457;-76
2022/09/19 07:11:15;;;;;;;10.00;7.70;;;19.40;48.40;;;;;;4999902;28;20482;-77
2022/09/19 07:13:43;;;;;;;8.70;7.40;;;19.50;48.40;;;;;;4999889;28;20458;-77
2022/09/19 07:16:11;;;;;;;10.50;8.10;;;19.50;48.50;;;;;;4994263;28;20434;-78
2022/09/19 07:18:41;;;;;;;11.67;8.23;;;19.60;48.30;;;;;;5012183;28;20441;-77
2022/09/19 07:21:08;;;;;;;9.37;7.57;;;19.50;48.20;;;;;;4997178;28;20456;-78
2022/09/19 07:23:37;;;;;;;11.30;8.00;;;19.60;48.50;;;;;;4994802;28;20435;-78
2022/09/19 07:26:05;;;;;;;11.00;7.80;;;19.60;48.20;;;;;;5011850;28;20483;-78
2022/09/19 07:28:33;;;;;;;11.90;7.37;;;19.70;48.40;;;;;;5005802;28;20441;-78
2022/09/19 07:31:01;;;;;;;8.50;7.13;;;19.70;48.20;;;;;;5004476;28;20488;-79
2022/09/19 07:33:30;;;;;;;9.80;7.50;;;19.80;48.20;;;;;;4996056;28;20874;-76
2022/09/19 07:35:59;;;;;;;9.37;7.30;;;19.80;48.10;;;;;;4996594;28;20433;-77
2022/09/19 07:38:28;;;;;;;12.53;7.70;;;19.90;48.20;;;;;;4995600;28;20448;-77
2022/09/19 07:40:56;;;;;;;10.27;7.33;;;19.90;48.00;;;;;;5013887;28;20460;-76
2022/09/19 07:43:24;;;;;;;11.03;7.93;;;19.90;48.10;;;;;;5003773;28;20520;-76
2022/09/19 07:45:53;;;;;;;8.10;6.83;;;20.00;47.80;;;;;;4995703;28;20453;-77
2022/09/19 07:48:21;;;;;;;10.47;7.50;;;20.00;47.90;;;;;;4992204;28;20508;-78
2022/09/19 07:50:49;;;;;;;8.10;6.70;;;20.10;47.80;;;;;;4984510;28;20488;-77
2022/09/19 07:53:24;;;;;;;9.40;6.70;;;20.20;47.80;;;;;;4993297;28;20445;-77
2022/09/19 07:55:53;;;;;;;10.10;6.77;;;20.30;47.80;;;;;;5012388;28;20476;-77
2022/09/19 07:58:22;;;;;;;8.17;6.63;;;20.30;47.60;;;;;;4996237;28;20448;-77
2022/09/19 08:00:50;;;;;;;7.43;6.47;;;20.50;47.60;;;;;;5000737;28;20480;-76
2022/09/19 08:03:19;;;;;;;8.70;6.17;;;20.60;47.30;;;;;;4989120;28;20911;-77
2022/09/19 08:05:48;;;;;;;8.30;6.20;;;20.70;47.30;;;;;;4992699;28;20445;-77
2022/09/19 08:08:17;;;;;;;7.43;6.57;;;20.80;47.30;;;;;;4992220;28;21080;-77
2022/09/19 08:10:47;;;;;;;7.90;6.00;;;21.00;47.40;;;;;;4974787;28;20477;-77
2022/09/19 08:13:16;;;;;;;7.40;6.10;;;21.20;47.30;;;;;;4973479;28;20454;-77
2022/09/19 08:15:45;;;;;;;7.20;5.53;;;21.40;47.20;;;;;;4990016;28;20472;-77
2022/09/19 08:18:14;;;;;;;7.77;6.17;;;21.60;47.20;;;;;;5001272;28;20453;-78
2022/09/19 08:20:42;;;;;;;7.07;5.60;;;21.70;47.00;;;;;;4991692;28;20469;-78
2022/09/19 08:23:11;;;;;;;7.50;6.07;;;21.80;47.00;;;;;;4991432;28;20461;-77
2022/09/19 08:25:43;;;;;;;7.20;5.70;;;21.90;47.10;;;;;;4997472;28;20449;-79
2022/09/19 08:28:13;;;;;;;8.33;6.00;;;22.10;47.10;;;;;;4992056;28;20480;-77
2022/09/19 08:30:43;;;;;;;7.77;6.17;;;22.40;47.20;;;;;;5005672;28;20471;-78
2022/09/19 08:33:11;;;;;;;8.40;6.10;;;22.50;47.10;;;;;;5011484;28;20479;-77
2022/09/19 08:35:41;;;;;;;10.63;5.40;;;22.70;47.00;;;;;;4993883;28;20930;-78
2022/09/19 08:38:10;;;;;;;7.90;6.20;;;23.00;47.20;;;;;;4995940;28;20456;-78
2022/09/19 08:40:47;;;;;;;5.70;5.00;;;23.20;47.20;;;;;;4999763;28;20449;-77
2022/09/19 08:43:23;;;;;;;7.30;5.63;;;23.40;47.00;;;;;;4995132;28;20455;-78
2022/09/19 08:46:11;;;;;;;6.10;5.33;;;23.70;47.00;;;;;;5001724;28;20423;-78
2022/09/19 08:48:46;;;;;;;6.03;5.37;;;23.90;46.90;;;;;;5002889;28;20437;-76
2022/09/19 08:51:18;;;;;;;5.80;5.20;;;24.10;46.80;;;;;;5001538;28;20476;-76
2022/09/19 08:53:48;;;;;;;6.20;5.27;;;24.20;46.70;;;;;;4992263;28;20439;-76
2022/09/19 08:56:18;;;;;;;6.13;5.23;;;24.40;46.80;;;;;;5009159;28;20436;-76
2022/09/19 08:58:48;;;;;;;5.03;4.63;;;24.40;46.50;;;;;;5011535;28;20447;-76
2022/09/19 09:01:16;;;;;;;5.60;4.43;;;24.70;46.80;;;;;;5000315;28;20451;-77
2022/09/19 09:03:50;;;;;;;5.30;4.80;;;24.80;46.50;;;;;;5009433;28;20448;-76
2022/09/19 09:06:23;;;;;;;6.10;5.50;;;24.90;46.50;;;;;;5005365;28;20536;-76
2022/09/19 09:08:55;;;;;;;5.40;4.40;;;25.20;46.60;;;;;;4993089;28;20429;-77
2022/09/19 09:11:28;;;;;;;4.90;4.40;;;25.40;46.40;;;;;;5010366;28;20472;-77
2022/09/19 09:14:01;;;;;;;5.47;4.60;;;25.40;46.20;;;;;;5013689;28;20407;-77
2022/09/19 09:16:35;;;;;;;4.80;4.40;;;25.70;46.40;;;;;;5006779;28;20424;-77
2022/09/19 09:19:17;;;;;;;5.00;4.50;;;25.70;45.90;;;;;;5002265;28;20547;-77
2022/09/19 09:21:50;;;;;;;4.37;3.97;;;25.70;45.90;;;;;;5004129;28;20513;-77
2022/09/19 09:24:20;;;;;;;5.70;4.10;;;25.50;45.90;;;;;;5000566;28;20499;-77
2022/09/19 09:27:06;;;;;;;4.57;4.13;;;25.40;46.40;;;;;;4996991;28;20855;-77
2022/09/19 09:29:36;;;;;;;5.60;4.03;;;25.20;46.60;;;;;;4996709;28;20464;-77
2022/09/19 09:32:13;;;;;;;4.40;4.00;;;25.20;46.70;;;;;;4995167;28;20455;-76
2022/09/19 09:34:43;;;;;;;5.67;4.07;;;25.20;46.80;;;;;;4994178;28;20465;-77
2022/09/19 09:37:20;;;;;;;5.10;4.10;;;25.20;46.80;;;;;;4995917;28;20440;-77
2022/09/19 09:40:00;;;;;;;4.40;4.00;;;25.10;46.80;;;;;;4997712;28;20461;-77
2022/09/19 09:42:32;;;;;;;4.63;4.03;;;25.00;47.00;;;;;;4997045;28;20497;-77
2022/09/19 09:45:06;;;;;;;5.37;4.17;;;24.80;47.10;;;;;;4999417;28;20866;-77
2022/09/19 09:47:43;;;;;;;4.23;3.83;;;24.80;47.40;;;;;;5015372;28;20444;-76
2022/09/19 09:50:32;;;;;;;6.20;4.20;;;24.70;47.30;;;;;;5014842;28;20482;-76
2022/09/19 09:53:03;;;;;;;5.57;3.90;;;24.70;47.40;;;;;;5007732;28;20460;-76
2022/09/19 09:58:26;;;;;;;5.93;4.00;;;24.60;47.40;;;;;;4989213;28;20943;-76
2022/09/19 10:03:50;;;;;;;3.70;3.33;;;24.40;47.70;;;;;;4990680;28;20432;-76
2022/09/19 10:06:23;;;;;;;4.00;3.63;;;24.30;47.90;;;;;;5000888;28;20455;-77
2022/09/19 10:08:54;;;;;;;5.40;3.70;;;24.20;47.80;;;;;;5005688;28;20435;-76
2022/09/19 10:11:24;;;;;;;3.67;3.37;;;24.20;47.80;;;;;;4996111;28;20448;-76
2022/09/19 10:14:18;;;;;;;4.80;3.80;;;24.10;47.80;;;;;;4989770;28;20474;-76
2022/09/19 10:16:48;;;;;;;3.97;3.53;;;24.10;47.90;;;;;;4991964;28;20449;-74
2022/09/19 10:19:25;;;;;;;5.77;3.97;;;24.10;47.90;;;;;;4987263;28;20480;-76
2022/09/19 10:21:53;;;;;;;4.93;3.47;;;24.30;48.20;;;;;;4994727;28;20468;-76
2022/09/19 10:24:41;;;;;;;4.30;3.90;;;24.70;48.50;;;;;;4997747;28;20456;-75
2022/09/19 10:27:13;;;;;;;3.17;2.93;;;25.20;48.10;;;;;;5000058;28;20431;-75
2022/09/19 10:29:50;;;;;;;5.23;3.50;;;25.70;47.70;;;;;;4992781;28;20481;-76
2022/09/19 10:32:23;;;;;;;3.50;3.20;;;26.20;47.10;;;;;;4987153;28;20488;-76
2022/09/19 10:34:51;;;;;;;4.00;3.60;;;26.80;46.80;;;;;;5005304;28;20821;-76
2022/09/19 10:37:21;;;;;;;4.73;3.83;;;27.00;46.00;;;;;;5014004;28;20448;-76
2022/09/19 10:39:50;;;;;;;7.23;3.40;;;26.90;45.40;;;;;;5006001;28;20472;-76
2022/09/19 10:42:31;;;;;;;3.60;3.30;;;26.70;45.40;;;;;;5004415;28;20431;-76
2022/09/19 10:44:59;;;;;;;3.80;3.20;;;26.50;45.60;;;;;;4994302;28;20424;-76
2022/09/19 10:47:29;;;;;;;4.83;3.30;;;26.30;45.90;;;;;;4989664;28;20424;-76
2022/09/19 10:50:02;;;;;;;3.40;3.07;;;26.10;46.10;;;;;;4988908;28;20993;-77
2022/09/19 10:52:33;;;;;;;5.17;3.70;;;26.00;46.40;;;;;;4993193;28;20452;-77
2022/09/19 10:55:22;;;;;;;3.73;3.13;;;25.90;46.50;;;;;;5004007;28;20536;-78
2022/09/19 10:57:59;;;;;;;3.70;2.97;;;26.10;46.80;;;;;;4994000;28;20458;-77
2022/09/19 11:00:28;;;;;;;3.40;2.97;;;26.60;46.60;;;;;;4999000;28;20476;-77
2022/09/19 11:03:17;;;;;;;4.53;3.07;;;26.50;45.80;;;;;;4990228;28;20439;-77
2022/09/19 11:05:45;;;;;;;3.20;3.00;;;26.40;45.90;;;;;;5005458;28;20440;-77
2022/09/19 11:08:23;;;;;;;2.90;2.70;;;26.30;46.00;;;;;;4992780;28;20428;-77
2022/09/19 11:10:51;;;;;;;3.00;2.80;;;26.20;46.00;;;;;;4993760;28;20473;-77
2022/09/19 11:13:22;;;;;;;3.77;3.20;;;26.20;46.30;;;;;;4998380;28;20415;-77
2022/09/19 11:16:17;;;;;;;3.90;2.90;;;26.20;46.00;;;;;;4999001;28;20461;-76
2022/09/19 11:18:57;;;;;;;3.40;3.07;;;26.00;46.10;;;;;;5010025;28;20432;-76
2022/09/19 11:21:30;;;;;;;3.30;2.77;;;25.80;46.40;;;;;;5006073;28;20421;-77
2022/09/19 11:24:29;;;;;;;3.80;3.07;;;25.70;46.70;;;;;;5011292;28;20457;-77
2022/09/19 11:27:06;;;;;;;3.00;2.70;;;25.60;46.80;;;;;;5009111;28;20448;-76
2022/09/19 11:29:45;;;;;;;2.70;2.50;;;25.50;46.90;;;;;;5004982;28;20461;-76
2022/09/19 11:32:17;;;;;;;2.70;2.50;;;25.40;46.90;;;;;;5008657;28;20528;-76
2022/09/19 11:35:14;;;;;;;2.90;2.70;;;25.30;47.10;;;;;;5015555;28;20459;-76
2022/09/19 11:37:57;;;;;;;3.07;2.87;;;25.30;47.00;;;;;;5001401;28;20457;-76
2022/09/19 11:40:31;;;;;;;2.57;2.37;;;25.30;47.10;;;;;;4999834;28;20472;-76
2022/09/19 11:43:07;;;;;;;3.13;2.93;;;25.60;47.40;;;;;;4985568;28;20457;-77
2022/09/19 11:45:50;;;;;;;3.87;2.77;;;27.90;46.10;;;;;;4992764;28;20464;-77
2022/09/19 11:48:27;;;;;;;2.80;2.60;;;29.10;41.70;;;;;;5002358;28;20439;-77
2022/09/19 11:51:00;;;;;;;4.60;2.90;;;30.60;39.90;;;;;;4998566;28;20463;-77
2022/09/19 11:53:38;;;;;;;3.03;2.57;;;32.60;38.50;;;;;;4996213;28;20504;-77
2022/09/19 11:56:15;;;;;;;2.87;2.67;;;34.40;35.40;;;;;;4992248;28;20472;-77
2022/09/19 11:58:46;;;;;;;2.30;2.20;;;35.70;33.30;;;;;;5011171;28;20535;-77
2022/09/19 12:01:23;;;;;;;2.10;2.00;;;36.70;31.60;;;;;;4994168;28;20488;-79
2022/09/19 12:04:09;;;;;;;2.07;1.97;;;37.50;30.20;;;;;;5002023;28;20480;-78
2022/09/19 12:06:49;;;;;;;2.20;2.10;;;38.10;29.70;;;;;;4993328;28;20507;-79
2022/09/19 12:09:31;;;;;;;1.70;1.70;;;38.70;29.10;;;;;;4997021;28;20469;-78
2022/09/19 12:12:17;;;;;;;2.10;2.00;;;39.50;28.50;;;;;;4995203;28;20448;-78
2022/09/19 12:14:50;;;;;;;2.10;2.00;;;39.40;28.40;;;;;;4996833;28;20540;-79
2022/09/19 12:17:22;;;;;;;2.00;1.90;;;39.10;28.10;;;;;;4999095;28;20457;-79
2022/09/19 12:19:57;;;;;;;3.27;2.40;;;37.70;29.00;;;;;;4994292;28;20504;-77
2022/09/19 12:22:27;;;;;;;5.63;2.20;;;36.20;30.10;;;;;;4986618;28;20524;-77
2022/09/19 12:24:59;;;;;;;2.30;2.10;;;34.70;31.80;;;;;;5000124;28;20445;-77
2022/09/19 12:27:32;;;;;;;2.70;2.50;;;33.60;33.60;;;;;;4994346;28;20489;-77
2022/09/19 12:30:05;;;;;;;2.23;2.10;;;32.60;34.90;;;;;;4990426;28;20514;-78
2022/09/19 12:32:40;;;;;;;2.40;2.30;;;31.80;36.00;;;;;;4994000;28;20441;-78
2022/09/19 12:35:16;;;;;;;2.73;2.53;;;32.30;35.70;;;;;;4981434;28;20466;-78
2022/09/19 12:37:57;;;;;;;2.87;2.10;;;32.40;36.70;;;;;;4991896;28;20460;-78
2022/09/19 12:40:29;;;;;;;2.00;1.90;;;34.50;34.50;;;;;;4997732;28;20469;-78
2022/09/19 12:43:01;;;;;;;2.23;2.13;;;36.10;32.40;;;;;;4992864;28;20478;-78
2022/09/19 12:45:31;;;;;;;1.67;1.57;;;37.50;30.60;;;;;;4994990;28;20457;-78
2022/09/19 12:48:06;;;;;;;1.47;1.47;;;38.70;29.50;;;;;;4992671;28;20481;-78
2022/09/19 12:50:36;;;;;;;1.63;1.53;;;39.40;28.70;;;;;;5003916;28;20478;-78
2022/09/19 12:53:25;;;;;;;2.00;1.90;;;38.50;28.30;;;;;;4998948;28;20460;-77
2022/09/19 12:56:00;;;;;;;2.00;1.90;;;37.40;30.40;;;;;;4994264;28;20471;-77
2022/09/19 12:58:31;;;;;;;2.13;2.00;;;37.10;29.40;;;;;;4997583;28;20468;-78
2022/09/19 13:01:08;;;;;;;1.70;1.60;;;36.70;29.80;;;;;;4995634;28;20477;-78
2022/09/19 13:03:38;;;;;;;1.70;1.60;;;35.70;30.80;;;;;;4992758;28;20480;-78
2022/09/19 13:06:10;;;;;;;2.60;1.73;;;34.60;32.10;;;;;;4995742;28;20449;-78
2022/09/19 13:08:41;;;;;;;2.20;2.00;;;33.60;33.50;;;;;;4995735;28;20449;-78
2022/09/19 13:11:13;;;;;;;1.80;1.70;;;32.80;34.90;;;;;;4997758;28;20457;-78
2022/09/19 13:13:51;;;;;;;1.97;1.80;;;33.60;36.50;;;;;;4993508;28;20457;-79
2022/09/19 13:16:20;;;;;;;1.80;1.70;;;35.20;33.60;;;;;;4992217;28;20452;-79